createdAt,value
2018-12-31T15:36:21.376Z,50.70
2018-12-31T15:39:09.767Z,51.10
2018-12-31T15:41:57.599Z,50.50
2018-12-31T15:44:45.331Z,50.30
2018-12-31T15:47:32.982Z,50.30
2018-12-31T15:50:20.730Z,50.40
2018-12-31T15:53:08.271Z,48.60
2018-12-31T15:55:58.669Z,47.60
2018-12-31T15:58:46.261Z,46.80
2018-12-31T16:01:34.248Z,46.00
2018-12-31T16:04:21.825Z,46.10
2018-12-31T16:07:09.702Z,46.20
2018-12-31T16:09:57.570Z,46.10
2018-12-31T16:12:44.724Z,46.00
2018-12-31T16:15:36.358Z,46.00
2018-12-31T16:18:24.938Z,46.00
2018-12-31T16:21:15.288Z,46.20
2018-12-31T16:24:06.286Z,46.00
2018-12-31T16:26:54.044Z,46.00
2018-12-31T16:29:41.801Z,46.60
2018-12-31T16:32:29.433Z,46.20
2018-12-31T16:35:16.619Z,45.50
2018-12-31T16:38:04.684Z,45.70
2018-12-31T16:40:55.009Z,45.50
2018-12-31T16:43:44.082Z,44.40
2018-12-31T16:46:32.265Z,44.20
2018-12-31T16:49:33.837Z,43.80
2018-12-31T16:52:22.045Z,43.50
2018-12-31T16:55:09.443Z,43.30
2018-12-31T16:57:56.923Z,43.30
2018-12-31T17:00:45.056Z,43.60
2018-12-31T17:03:33.832Z,43.20
2018-12-31T17:06:22.269Z,42.50
2018-12-31T17:09:09.414Z,42.50
2018-12-31T17:11:57.253Z,41.70
2018-12-31T17:14:45.113Z,41.70
2018-12-31T17:17:32.573Z,42.20
2018-12-31T17:20:20.100Z,42.20
2018-12-31T17:23:07.751Z,41.70
2018-12-31T17:25:55.491Z,41.70
2018-12-31T17:28:42.632Z,41.60
2018-12-31T17:31:29.899Z,41.70
2018-12-31T17:34:17.179Z,41.70
2018-12-31T17:37:04.634Z,41.10
2018-12-31T17:39:52.380Z,41.30
2018-12-31T17:42:40.288Z,41.20
2018-12-31T17:45:27.480Z,41.70
2018-12-31T17:48:15.237Z,40.80
2018-12-31T17:51:02.988Z,40.70
2018-12-31T17:53:51.611Z,40.60
2018-12-31T17:56:38.894Z,41.60
2018-12-31T17:59:26.585Z,40.20
2018-12-31T18:02:14.800Z,40.80
2018-12-31T18:05:03.024Z,40.80
2018-12-31T18:07:50.449Z,40.90
2018-12-31T18:10:38.300Z,41.10
2018-12-31T18:13:25.832Z,40.60
2018-12-31T18:16:14.054Z,39.70
2018-12-31T18:19:02.047Z,40.70
2018-12-31T18:21:50.326Z,39.30
2018-12-31T18:24:40.209Z,39.40
2018-12-31T18:27:27.808Z,40.10
2018-12-31T18:30:15.101Z,39.80
2018-12-31T18:33:02.502Z,39.80
2018-12-31T18:35:50.062Z,40.30
2018-12-31T18:38:37.584Z,40.00
2018-12-31T18:41:27.279Z,40.10
2018-12-31T18:44:15.123Z,40.30
2018-12-31T18:47:09.195Z,40.30
2018-12-31T18:49:59.577Z,40.00
2018-12-31T18:52:47.099Z,40.00
2018-12-31T18:55:34.541Z,40.10
2018-12-31T18:58:22.279Z,40.20
2018-12-31T19:01:09.721Z,40.40
2018-12-31T19:03:56.900Z,40.50
2018-12-31T19:06:44.856Z,40.30
2018-12-31T19:09:32.405Z,39.80
2018-12-31T19:12:19.927Z,40.50
2018-12-31T19:15:07.980Z,40.60
2018-12-31T19:17:55.546Z,40.80
2018-12-31T19:20:43.168Z,40.20
2018-12-31T19:23:30.995Z,40.20
2018-12-31T19:26:18.705Z,38.80
2018-12-31T19:29:06.729Z,37.60
2018-12-31T19:31:53.939Z,33.00
2018-12-31T19:34:41.569Z,32.70
2018-12-31T19:37:29.966Z,31.30
2018-12-31T19:40:17.333Z,31.60
2018-12-31T19:43:04.661Z,29.80
2018-12-31T19:45:53.867Z,29.80
2018-12-31T19:48:42.755Z,29.60
2018-12-31T19:51:30.712Z,30.00
2018-12-31T19:54:18.541Z,29.60
2018-12-31T19:57:06.185Z,28.30
2018-12-31T19:59:54.499Z,28.00
2018-12-31T20:02:44.516Z,28.50
2018-12-31T20:05:31.943Z,28.90
2018-12-31T20:08:21.208Z,29.10
2018-12-31T20:11:08.855Z,28.80
2018-12-31T20:13:56.697Z,29.40
2018-12-31T20:16:45.639Z,29.90
2018-12-31T20:19:35.221Z,29.60
2018-12-31T20:22:22.632Z,29.70
2018-12-31T20:25:11.383Z,30.40
2018-12-31T20:27:59.279Z,31.20
2018-12-31T20:30:47.162Z,31.60
2018-12-31T20:33:34.477Z,30.30
2018-12-31T20:36:22.197Z,28.80
2018-12-31T20:39:09.672Z,28.00
2018-12-31T20:41:57.060Z,27.90
2018-12-31T20:44:45.692Z,28.20
2018-12-31T20:47:33.573Z,27.40
2018-12-31T20:50:21.553Z,26.50
2018-12-31T20:53:08.688Z,25.70
2018-12-31T20:55:56.554Z,24.30
2018-12-31T20:58:44.232Z,23.40
2018-12-31T21:01:32.297Z,23.60
2018-12-31T21:04:20.957Z,24.60
2018-12-31T21:07:08.380Z,25.00
2018-12-31T21:09:56.020Z,24.70
2018-12-31T21:12:43.515Z,23.10
2018-12-31T21:15:30.887Z,21.00
2018-12-31T21:18:19.599Z,20.90
2018-12-31T21:21:07.634Z,20.70
2018-12-31T21:23:55.280Z,20.20
2018-12-31T21:26:42.783Z,20.20
2018-12-31T21:29:30.091Z,19.30
2018-12-31T21:32:17.724Z,17.70
2018-12-31T21:35:05.417Z,18.50
2018-12-31T21:37:52.974Z,18.30
2018-12-31T21:40:42.156Z,17.40
2018-12-31T21:43:29.627Z,17.60
2018-12-31T21:46:18.965Z,16.60
2018-12-31T21:49:06.423Z,16.20
2018-12-31T21:51:53.863Z,14.80
2018-12-31T21:54:41.545Z,14.40
2018-12-31T21:57:29.072Z,14.70
2018-12-31T22:00:16.653Z,13.80
2018-12-31T22:03:04.272Z,12.20
2018-12-31T22:05:51.763Z,13.10
2018-12-31T22:08:39.934Z,13.20
2018-12-31T22:11:27.459Z,13.30
2018-12-31T22:14:17.313Z,13.90
2018-12-31T22:17:14.982Z,15.00
2018-12-31T22:20:03.674Z,15.50
2018-12-31T22:22:51.687Z,16.70
2018-12-31T22:25:39.542Z,17.60
2018-12-31T22:28:27.263Z,17.60
2018-12-31T22:31:15.204Z,18.40
2018-12-31T22:34:03.013Z,16.70
2018-12-31T22:36:50.410Z,16.00
2018-12-31T22:39:37.780Z,13.90
2018-12-31T22:42:25.120Z,12.00
2018-12-31T22:45:12.886Z,12.30
2018-12-31T22:48:01.592Z,11.90
2018-12-31T22:50:49.326Z,10.20
2018-12-31T22:53:37.019Z,10.10
2018-12-31T22:56:24.692Z,7.60
2018-12-31T22:59:13.432Z,3.90
2018-12-31T23:02:01.459Z,4.00
2018-12-31T23:04:49.276Z,2.90
2018-12-31T23:07:43.423Z,4.30
2018-12-31T23:10:34.380Z,5.50
2018-12-31T23:13:24.813Z,6.80
2018-12-31T23:16:16.575Z,7.30
2018-12-31T23:19:05.592Z,7.30
2018-12-31T23:21:53.498Z,5.40
2018-12-31T23:24:41.423Z,1.00
2018-12-31T23:27:28.739Z,1.00
2018-12-31T23:30:16.412Z,1.00
2018-12-31T23:33:03.870Z,1.00
2018-12-31T23:35:51.650Z,1.10
2018-12-31T23:38:38.937Z,2.50
2018-12-31T23:41:29.428Z,2.50
2018-12-31T23:44:16.803Z,3.20
2018-12-31T23:47:04.498Z,4.50
2018-12-31T23:49:54.950Z,5.60
2018-12-31T23:52:42.624Z,7.90
2018-12-31T23:55:30.462Z,10.20
2018-12-31T23:58:17.859Z,12.30
